createdAt,value
2023-05-24T00:02:14.297Z,100160.44
2023-05-24T00:04:43.020Z,100155.94
2023-05-24T00:07:12.732Z,100147.44
2023-05-24T00:09:41.018Z,100150.78
2023-05-24T00:12:09.788Z,100147.63
2023-05-24T00:14:38.416Z,100152.22
2023-05-24T00:17:06.928Z,100161.53
2023-05-24T00:19:38.512Z,100160.53
2023-05-24T00:22:06.931Z,100162.59
2023-05-24T00:24:35.329Z,100158.97
2023-05-24T00:27:03.689Z,100158.47
2023-05-24T00:29:32.426Z,100156.31
2023-05-24T00:32:00.868Z,100152.75
2023-05-24T00:34:31.262Z,100154.78
2023-05-24T00:37:01.008Z,100160.59
2023-05-24T00:39:29.277Z,100160.59
2023-05-24T00:41:57.592Z,100150.16
2023-05-24T00:44:25.909Z,100152.09
2023-05-24T00:46:54.315Z,100159.13
2023-05-24T00:49:24.399Z,100155.22
2023-05-24T00:51:54.128Z,100152.22
2023-05-24T00:54:26.392Z,100153.91
2023-05-24T00:56:56.204Z,100155.75
2023-05-24T00:59:25.353Z,100148.03
2023-05-24T01:01:55.698Z,100160.50
2023-05-24T01:04:24.319Z,100155.09
2023-05-24T01:07:04.355Z,100164.88
2023-05-24T01:09:42.671Z,100156.22
2023-05-24T01:12:21.363Z,100150.38
2023-05-24T01:14:59.811Z,100148.03
2023-05-24T01:17:34.293Z,100149.00
2023-05-24T01:20:08.968Z,100148.19
2023-05-24T01:23:13.727Z,100151.22
2023-05-24T01:26:07.446Z,100156.00
2023-05-24T01:28:37.818Z,100151.03
2023-05-24T01:31:07.012Z,100156.41
2023-05-24T01:33:35.519Z,100166.75
2023-05-24T01:36:03.872Z,100158.41
2023-05-24T01:38:32.191Z,100156.53
2023-05-24T01:41:07.038Z,100156.59
2023-05-24T01:43:42.238Z,100153.19
2023-05-24T01:46:19.511Z,100156.19
2023-05-24T01:48:56.731Z,100159.22
2023-05-24T01:51:27.831Z,100163.63
2023-05-24T01:53:59.799Z,100153.13
2023-05-24T01:56:32.211Z,100151.38
2023-05-24T01:59:03.878Z,100159.75
2023-05-24T02:01:33.379Z,100151.53
2023-05-24T02:04:01.833Z,100156.47
2023-05-24T02:06:30.211Z,100150.81
2023-05-24T02:08:58.719Z,100155.41
2023-05-24T02:11:27.789Z,100153.97
2023-05-24T02:13:56.065Z,100162.50
2023-05-24T02:16:27.080Z,100158.72
2023-05-24T02:18:55.659Z,100162.56
2023-05-24T02:21:24.498Z,100160.81
2023-05-24T02:23:52.825Z,100155.28
2023-05-24T02:26:21.268Z,100164.41
2023-05-24T02:28:49.596Z,100163.94
2023-05-24T02:31:18.627Z,100166.47
2023-05-24T02:33:48.485Z,100176.56
2023-05-24T02:36:16.882Z,100169.88
2023-05-24T02:38:45.411Z,100171.44
2023-05-24T02:41:17.990Z,100182.00
2023-05-24T02:43:46.327Z,100177.09
2023-05-24T02:46:15.049Z,100182.78
2023-05-24T02:48:43.389Z,100184.66
2023-05-24T02:51:13.238Z,100194.53
2023-05-24T02:53:43.621Z,100193.06
2023-05-24T02:56:13.902Z,100190.59
2023-05-24T02:58:42.275Z,100195.66
2023-05-24T03:01:10.589Z,100198.81
2023-05-24T03:03:38.997Z,100192.06
2023-05-24T03:06:08.368Z,100200.38
2023-05-24T03:08:38.208Z,100192.22
2023-05-24T03:11:06.810Z,100187.56
2023-05-24T03:13:35.135Z,100186.72
2023-05-24T03:16:03.518Z,100184.16
2023-05-24T03:18:31.975Z,100183.47
2023-05-24T03:21:00.296Z,100187.63
2023-05-24T03:23:28.644Z,100188.88
2023-05-24T03:25:58.514Z,100182.16
2023-05-24T03:28:27.642Z,100183.66
2023-05-24T03:30:55.997Z,100180.97
2023-05-24T03:33:24.287Z,100175.03
2023-05-24T03:35:52.694Z,100174.50
2023-05-24T03:38:20.972Z,100172.38
2023-05-24T03:40:49.205Z,100175.41
2023-05-24T03:43:20.428Z,100174.59
2023-05-24T03:45:48.957Z,100173.94
2023-05-24T03:48:17.280Z,100183.34
2023-05-24T03:50:45.696Z,100178.75
2023-05-24T03:53:14.375Z,100188.88
2023-05-24T03:55:42.774Z,100184.16
2023-05-24T03:58:12.734Z,100182.78
2023-05-24T04:00:42.822Z,100189.09
2023-05-24T04:03:12.339Z,100186.06
2023-05-24T04:05:40.832Z,100194.25
2023-05-24T04:08:09.211Z,100197.19
2023-05-24T04:10:37.667Z,100201.56
2023-05-24T04:13:05.931Z,100198.78
2023-05-24T04:15:34.255Z,100193.94
2023-05-24T04:18:03.972Z,100195.81
2023-05-24T04:20:32.655Z,100194.66
2023-05-24T04:23:01.067Z,100195.81
2023-05-24T04:25:29.755Z,100203.44
2023-05-24T04:27:58.408Z,100214.69
2023-05-24T04:30:30.217Z,100205.00
2023-05-24T04:32:58.567Z,100200.56
2023-05-24T04:35:28.425Z,100202.00
2023-05-24T04:37:57.751Z,100202.31
2023-05-24T04:40:26.268Z,100204.63
2023-05-24T04:42:54.509Z,100204.53
2023-05-24T04:45:23.008Z,100198.72
2023-05-24T04:47:51.314Z,100194.66
2023-05-24T04:50:19.839Z,100190.97
2023-05-24T04:52:49.783Z,100194.97
2023-05-24T04:55:18.119Z,100194.84
2023-05-24T04:57:46.423Z,100191.84
2023-05-24T05:00:15.664Z,100189.56
2023-05-24T05:02:44.140Z,100182.72
2023-05-24T05:05:12.788Z,100190.19
2023-05-24T05:07:41.103Z,100184.75
2023-05-24T05:10:11.194Z,100185.38
2023-05-24T05:12:40.059Z,100185.41
2023-05-24T05:15:10.095Z,100176.53
2023-05-24T05:17:38.609Z,100179.56
2023-05-24T05:20:08.268Z,100189.19
2023-05-24T05:22:36.739Z,100185.44
2023-05-24T05:25:05.366Z,100191.81
2023-05-24T05:27:35.139Z,100184.31
2023-05-24T05:30:03.626Z,100182.66
2023-05-24T05:32:32.009Z,100189.97
2023-05-24T05:35:00.496Z,100195.66
2023-05-24T05:37:29.983Z,100188.88
2023-05-24T05:39:58.452Z,100192.69
2023-05-24T05:42:26.806Z,100192.84
2023-05-24T05:44:56.672Z,100189.19
2023-05-24T05:47:25.004Z,100190.72
2023-05-24T05:49:53.310Z,100183.56
2023-05-24T05:52:21.776Z,100193.47
2023-05-24T05:54:50.065Z,100196.81
2023-05-24T05:57:24.258Z,100196.03
2023-05-24T05:59:52.849Z,100186.50
2023-05-24T06:02:23.167Z,100183.84
2023-05-24T06:04:51.985Z,100187.19
2023-05-24T06:07:20.347Z,100196.31
2023-05-24T06:09:48.683Z,100211.94
2023-05-24T06:12:18.384Z,100210.38
2023-05-24T06:14:48.403Z,100214.72
2023-05-24T06:17:16.844Z,100214.25
2023-05-24T06:19:47.012Z,100213.06
2023-05-24T06:22:15.256Z,100219.66
2023-05-24T06:24:43.933Z,100221.78
2023-05-24T06:27:12.374Z,100216.16
2023-05-24T06:29:41.070Z,100220.63
2023-05-24T06:32:09.468Z,100220.50
2023-05-24T06:34:44.463Z,100230.69
2023-05-24T06:37:15.902Z,100223.81
2023-05-24T06:39:44.212Z,100215.09
2023-05-24T06:42:12.504Z,100215.91
2023-05-24T06:44:40.926Z,100225.28
2023-05-24T06:47:09.586Z,100218.06
2023-05-24T06:49:38.252Z,100215.47
2023-05-24T06:52:08.507Z,100214.28
2023-05-24T06:54:38.241Z,100219.41
2023-05-24T06:57:06.890Z,100216.41
2023-05-24T06:59:36.281Z,100220.75
2023-05-24T07:02:04.975Z,100222.19
2023-05-24T07:04:33.690Z,100225.75
2023-05-24T07:07:03.140Z,100229.97
2023-05-24T07:09:31.775Z,100233.34
2023-05-24T07:12:02.684Z,100232.19
2023-05-24T07:14:30.971Z,100221.84
2023-05-24T07:17:00.076Z,100217.81
2023-05-24T07:19:29.805Z,100218.25
2023-05-24T07:21:58.592Z,100229.81
2023-05-24T07:24:26.889Z,100226.28
2023-05-24T07:26:56.912Z,100226.41
2023-05-24T07:29:27.168Z,100227.75
2023-05-24T07:31:58.178Z,100230.97
2023-05-24T07:34:28.111Z,100238.19
2023-05-24T07:36:56.864Z,100240.16
2023-05-24T07:39:25.388Z,100238.28
2023-05-24T07:41:53.845Z,100241.88
2023-05-24T07:44:22.400Z,100252.78
2023-05-24T07:46:52.269Z,100238.81
2023-05-24T07:49:20.779Z,100248.66
2023-05-24T07:51:49.394Z,100248.38
2023-05-24T07:54:17.819Z,100247.41
2023-05-24T07:56:46.159Z,100246.53
2023-05-24T07:59:14.444Z,100243.53
2023-05-24T08:01:42.916Z,100246.09
2023-05-24T08:04:12.609Z,100243.91
2023-05-24T08:06:41.051Z,100243.06
2023-05-24T08:09:10.307Z,100237.94
2023-05-24T08:11:38.775Z,100231.75
2023-05-24T08:14:07.112Z,100242.63
2023-05-24T08:16:35.474Z,100240.00
2023-05-24T08:19:03.816Z,100241.19
2023-05-24T08:21:33.963Z,100250.94
2023-05-24T08:24:02.287Z,100252.22
2023-05-24T08:26:30.620Z,100250.88
2023-05-24T08:28:59.190Z,100259.59
2023-05-24T08:31:27.627Z,100258.41
2023-05-24T08:33:57.805Z,100264.50
2023-05-24T08:36:26.869Z,100261.06
2023-05-24T08:38:56.653Z,100267.34
2023-05-24T08:41:24.941Z,100266.19
2023-05-24T08:43:54.519Z,100265.81
2023-05-24T08:46:23.611Z,100269.81
2023-05-24T08:48:53.636Z,100268.66
2023-05-24T08:51:22.079Z,100263.72
2023-05-24T08:53:53.145Z,100277.38
2023-05-24T08:56:24.232Z,100280.63
2023-05-24T08:58:52.841Z,100285.38
2023-05-24T09:01:21.719Z,100288.66
2023-05-24T09:03:51.867Z,100280.47
2023-05-24T09:06:20.982Z,100283.41
2023-05-24T09:08:52.536Z,100294.63
2023-05-24T09:11:23.009Z,100285.09
2023-05-24T09:13:52.040Z,100295.38
2023-05-24T09:16:20.515Z,100288.28
2023-05-24T09:18:49.036Z,100296.59
2023-05-24T09:21:17.826Z,100303.00
2023-05-24T09:23:46.753Z,100298.38
2023-05-24T09:26:15.082Z,100307.06
2023-05-24T09:28:44.816Z,100299.94
2023-05-24T09:31:13.989Z,100305.22
2023-05-24T09:33:42.397Z,100297.47
2023-05-24T09:36:11.887Z,100295.47
2023-05-24T09:38:40.210Z,100299.81
2023-05-24T09:41:11.062Z,100297.84
2023-05-24T09:43:51.017Z,100297.84
2023-05-24T09:46:20.130Z,100291.97
2023-05-24T09:48:58.965Z,100301.91
2023-05-24T09:51:27.891Z,100296.44
2023-05-24T09:53:59.135Z,100302.28
2023-05-24T09:56:28.197Z,100299.59
2023-05-24T09:58:58.149Z,100305.34
2023-05-24T10:01:27.058Z,100305.59
2023-05-24T10:03:56.321Z,100295.81
2023-05-24T10:06:25.221Z,100299.63
2023-05-24T10:08:55.938Z,100301.69
2023-05-24T10:11:24.261Z,100293.28
2023-05-24T10:13:52.697Z,100299.00
2023-05-24T10:16:22.595Z,100305.78
2023-05-24T10:18:51.833Z,100304.75
2023-05-24T10:21:23.497Z,100301.16
2023-05-24T10:23:58.755Z,100296.78
2023-05-24T10:26:30.944Z,100300.75
2023-05-24T10:29:06.051Z,100291.47
2023-05-24T10:31:39.315Z,100295.25
2023-05-24T10:34:09.355Z,100296.56
2023-05-24T10:36:40.687Z,100288.50
2023-05-24T10:39:12.533Z,100288.41
2023-05-24T10:41:42.226Z,100285.44
2023-05-24T10:44:14.567Z,100291.06
2023-05-24T10:47:19.694Z,100287.91
2023-05-24T10:49:53.227Z,100284.47
2023-05-24T10:52:22.128Z,100274.72
2023-05-24T10:55:09.855Z,100266.66
2023-05-24T10:57:39.479Z,100266.31
2023-05-24T11:03:04.351Z,100266.69
2023-05-24T11:05:53.212Z,100265.25
2023-05-24T11:08:27.650Z,100271.69
2023-05-24T11:11:23.430Z,100255.00
2023-05-24T11:13:58.413Z,100262.94
2023-05-24T11:16:39.494Z,100259.69
2023-05-24T11:19:18.527Z,100266.88
2023-05-24T11:21:49.731Z,100258.09
2023-05-24T11:24:19.242Z,100259.72
2023-05-24T11:26:48.225Z,100265.94
2023-05-24T11:29:21.164Z,100276.75
2023-05-24T11:31:50.821Z,100273.84
2023-05-24T11:34:19.368Z,100269.56
2023-05-24T11:36:50.276Z,100275.69
2023-05-24T11:39:18.765Z,100275.34
2023-05-24T11:41:49.004Z,100264.44
2023-05-24T11:44:19.418Z,100265.63
2023-05-24T11:46:48.368Z,100266.84
2023-05-24T11:49:18.580Z,100277.41
2023-05-24T11:51:48.380Z,100276.94
2023-05-24T11:54:16.727Z,100272.31
2023-05-24T11:56:45.083Z,100268.00
2023-05-24T11:59:17.784Z,100264.91
2023-05-24T12:01:46.426Z,100264.53
2023-05-24T12:04:14.977Z,100261.81
2023-05-24T12:06:45.063Z,100271.22
2023-05-24T12:09:18.769Z,100263.38
2023-05-24T12:11:50.227Z,100261.41
2023-05-24T12:14:20.161Z,100261.56
2023-05-24T12:16:50.256Z,100258.06
2023-05-24T12:19:32.424Z,100252.41
2023-05-24T12:22:02.752Z,100254.16
2023-05-24T12:24:33.383Z,100251.56
2023-05-24T12:27:03.656Z,100250.00
2023-05-24T12:29:36.746Z,100248.13
2023-05-24T12:32:06.719Z,100250.56
2023-05-24T12:34:35.188Z,100237.28
2023-05-24T12:37:04.359Z,100244.81
2023-05-24T12:39:37.990Z,100238.25
2023-05-24T12:42:06.679Z,100241.25
2023-05-24T12:44:37.761Z,100232.75
2023-05-24T12:47:08.986Z,100240.88
2023-05-24T12:49:37.861Z,100234.72
2023-05-24T12:52:07.140Z,100232.28
2023-05-24T12:54:37.132Z,100225.50
2023-05-24T12:57:05.851Z,100233.47
2023-05-24T12:59:35.513Z,100236.91
2023-05-24T13:02:03.991Z,100229.66
2023-05-24T13:04:34.023Z,100230.47
2023-05-24T13:07:03.383Z,100233.22
2023-05-24T13:09:31.843Z,100228.94
2023-05-24T13:12:01.819Z,100222.75
2023-05-24T13:14:30.165Z,100222.59
2023-05-24T13:16:58.621Z,100222.53
2023-05-24T13:19:27.103Z,100223.00
2023-05-24T13:21:55.672Z,100221.00
2023-05-24T13:24:24.422Z,100215.88
2023-05-24T13:26:54.829Z,100218.56
2023-05-24T13:31:56.606Z,100211.53
2023-05-24T13:34:25.961Z,100213.00
2023-05-24T13:36:55.347Z,100205.06
2023-05-24T13:39:24.041Z,100208.44
2023-05-24T13:41:52.395Z,100199.97
2023-05-24T13:44:21.515Z,100206.09
2023-05-24T13:46:51.337Z,100210.53
2023-05-24T13:49:19.792Z,100204.78
2023-05-24T13:51:48.215Z,100209.09
2023-05-24T13:54:16.835Z,100209.13
2023-05-24T13:56:45.446Z,100209.56
2023-05-24T13:59:13.717Z,100198.16
2023-05-24T14:01:42.273Z,100201.53
2023-05-24T14:04:12.189Z,100195.59
2023-05-24T14:06:40.538Z,100193.72
2023-05-24T14:09:09.189Z,100201.22
2023-05-24T14:11:37.672Z,100194.59
2023-05-24T14:16:37.600Z,100195.69
2023-05-24T14:19:06.422Z,100203.88
2023-05-24T14:21:36.529Z,100190.84
2023-05-24T14:24:05.158Z,100187.31
2023-05-24T14:26:33.497Z,100184.69
2023-05-24T14:29:01.793Z,100184.69
2023-05-24T14:31:30.174Z,100181.84
2023-05-24T14:33:58.778Z,100178.19
2023-05-24T14:36:27.121Z,100173.25
2023-05-24T14:38:56.849Z,100177.13
2023-05-24T14:41:25.159Z,100176.25
2023-05-24T14:43:53.659Z,100169.97
2023-05-24T14:46:21.961Z,100174.00
2023-05-24T14:48:50.322Z,100175.38
2023-05-24T14:51:18.797Z,100178.59
2023-05-24T14:53:47.141Z,100177.63
2023-05-24T14:56:17.239Z,100172.06
2023-05-24T14:58:45.757Z,100176.78
2023-05-24T15:01:14.263Z,100171.53
2023-05-24T15:03:44.263Z,100181.41
2023-05-24T15:06:13.684Z,100185.16
2023-05-24T15:08:41.965Z,100181.72
2023-05-24T15:11:10.218Z,100185.53
2023-05-24T15:13:40.062Z,100191.91
2023-05-24T15:16:08.754Z,100186.22
2023-05-24T15:18:37.034Z,100189.34
2023-05-24T15:21:05.419Z,100189.31
2023-05-24T15:23:33.788Z,100187.22
2023-05-24T15:26:02.277Z,100193.66
2023-05-24T15:28:30.820Z,100195.50
2023-05-24T15:31:02.081Z,100193.91
2023-05-24T15:33:30.721Z,100196.25
2023-05-24T15:35:59.191Z,100198.63
2023-05-24T15:38:27.531Z,100194.59
2023-05-24T15:40:55.826Z,100198.69
2023-05-24T15:43:24.539Z,100189.16
2023-05-24T15:45:53.722Z,100191.66
2023-05-24T15:48:24.084Z,100197.44
2023-05-24T15:51:43.001Z,100198.56
2023-05-24T15:53:40.802Z,100196.56
2023-05-24T15:56:10.335Z,100188.38
2023-05-24T15:58:38.731Z,100197.19
2023-05-24T16:01:07.483Z,100196.00
2023-05-24T16:03:38.265Z,100194.97
2023-05-24T16:06:07.102Z,100199.03
2023-05-24T16:08:35.493Z,100200.25
2023-05-24T16:11:08.334Z,100210.50
2023-05-24T16:13:36.796Z,100207.22
2023-05-24T16:16:05.232Z,100204.34
2023-05-24T16:18:35.490Z,100202.81
2023-05-24T16:21:05.523Z,100207.31
2023-05-24T16:23:34.120Z,100210.97
2023-05-24T16:26:02.449Z,100208.84
2023-05-24T16:28:30.812Z,100208.16
2023-05-24T16:31:02.945Z,100216.47
2023-05-24T16:33:31.380Z,100216.56
2023-05-24T16:36:03.428Z,100216.16
2023-05-24T16:38:33.920Z,100221.50
2023-05-24T16:41:02.266Z,100223.22
2023-05-24T16:43:30.735Z,100221.84
2023-05-24T16:45:59.182Z,100227.53
2023-05-24T16:48:31.547Z,100222.03
2023-05-24T16:51:00.185Z,100215.56
2023-05-24T16:53:29.051Z,100213.56
2023-05-24T16:55:58.958Z,100215.47
2023-05-24T16:58:29.019Z,100217.31
2023-05-24T17:00:57.486Z,100205.56
2023-05-24T17:03:29.237Z,100210.16
2023-05-24T17:06:03.556Z,100211.16
2023-05-24T17:08:34.376Z,100208.78
2023-05-24T17:11:04.730Z,100217.59
2023-05-24T17:13:33.468Z,100219.78
2023-05-24T17:16:01.875Z,100209.03
2023-05-24T17:18:30.261Z,100213.16
2023-05-24T17:20:59.164Z,100222.13
2023-05-24T17:23:28.399Z,100219.00
2023-05-24T17:25:56.775Z,100220.56
2023-05-24T17:28:28.404Z,100223.63
2023-05-24T17:30:56.737Z,100219.06
2023-05-24T17:33:26.827Z,100219.25
2023-05-24T17:35:56.672Z,100220.81
2023-05-24T17:38:25.882Z,100223.28
2023-05-24T17:40:59.507Z,100218.28
2023-05-24T17:43:32.623Z,100215.59
2023-05-24T17:46:06.568Z,100214.28
2023-05-24T17:48:36.915Z,100211.38
2023-05-24T17:51:07.072Z,100207.47
2023-05-24T17:53:36.113Z,100214.78
2023-05-24T17:56:05.348Z,100220.19
2023-05-24T17:58:37.364Z,100218.19
2023-05-24T18:01:07.500Z,100225.31
2023-05-24T18:03:37.720Z,100225.91
2023-05-24T18:06:07.542Z,100238.63
2023-05-24T18:08:38.527Z,100241.31
2023-05-24T18:11:09.627Z,100250.72
2023-05-24T18:13:40.224Z,100250.09
2023-05-24T18:16:09.824Z,100253.16
2023-05-24T18:18:38.947Z,100271.75
2023-05-24T18:21:07.759Z,100267.00
2023-05-24T18:23:38.142Z,100275.03
2023-05-24T18:26:08.567Z,100273.00
2023-05-24T18:28:38.220Z,100272.09
2023-05-24T18:31:10.534Z,100277.16
2023-05-24T18:33:39.325Z,100278.53
2023-05-24T18:36:08.454Z,100287.66
2023-05-24T18:38:37.708Z,100289.47
2023-05-24T18:41:09.469Z,100298.59
2023-05-24T18:43:37.855Z,100292.41
2023-05-24T18:46:07.688Z,100291.84
2023-05-24T18:48:36.085Z,100294.34
2023-05-24T18:51:04.671Z,100298.84
2023-05-24T18:53:33.056Z,100308.06
2023-05-24T18:56:01.580Z,100306.94
2023-05-24T18:58:30.024Z,100304.09
2023-05-24T19:00:58.632Z,100312.69
2023-05-24T19:03:28.570Z,100301.06
2023-05-24T19:05:57.030Z,100316.38
2023-05-24T19:08:26.148Z,100309.84
2023-05-24T19:10:54.556Z,100311.88
2023-05-24T19:13:23.121Z,100312.78
2023-05-24T19:15:51.461Z,100318.06
2023-05-24T19:18:19.794Z,100317.94
2023-05-24T19:20:49.975Z,100319.53
2023-05-24T19:23:18.392Z,100311.78
2023-05-24T19:25:50.239Z,100311.00
2023-05-24T19:28:18.821Z,100323.25
2023-05-24T19:30:47.123Z,100315.72
2023-05-24T19:33:15.547Z,100319.97
2023-05-24T19:35:44.281Z,100315.47
2023-05-24T19:38:17.980Z,100319.97
2023-05-24T19:40:46.356Z,100310.75
2023-05-24T19:43:14.636Z,100321.66
2023-05-24T19:45:43.065Z,100320.44
2023-05-24T19:48:11.569Z,100326.28
2023-05-24T19:50:40.776Z,100327.06
2023-05-24T19:53:09.176Z,100322.47
2023-05-24T19:55:38.939Z,100319.28
2023-05-24T19:58:07.281Z,100311.53
2023-05-24T20:00:35.832Z,100310.75
2023-05-24T20:03:04.261Z,100316.59
2023-05-24T20:05:32.600Z,100319.09
2023-05-24T20:08:01.317Z,100323.00
2023-05-24T20:10:32.063Z,100330.56
2023-05-24T20:13:01.890Z,100333.38
2023-05-24T20:15:30.561Z,100334.59
2023-05-24T20:17:59.437Z,100328.28
2023-05-24T20:20:27.885Z,100332.91
2023-05-24T20:22:56.270Z,100332.44
2023-05-24T20:25:25.113Z,100323.13
2023-05-24T20:27:53.363Z,100325.59
2023-05-24T20:30:23.174Z,100333.13
2023-05-24T20:32:51.580Z,100333.38
2023-05-24T20:35:20.720Z,100328.31
2023-05-24T20:37:49.080Z,100328.31
2023-05-24T20:40:22.802Z,100326.41
2023-05-24T20:42:51.145Z,100329.63
2023-05-24T20:45:19.937Z,100327.75
2023-05-24T20:47:49.907Z,100333.34
2023-05-24T20:50:18.554Z,100340.56
2023-05-24T20:52:46.964Z,100339.75
2023-05-24T20:55:16.455Z,100342.38
2023-05-24T20:57:44.980Z,100337.97
2023-05-24T21:00:14.324Z,100348.53
2023-05-24T21:02:42.751Z,100339.09
2023-05-24T21:05:12.735Z,100342.81
2023-05-24T21:07:41.332Z,100339.66
2023-05-24T21:10:11.239Z,100343.16
2023-05-24T21:12:39.548Z,100348.03
2023-05-24T21:15:11.904Z,100351.06
2023-05-24T21:17:40.417Z,100348.16
2023-05-24T21:20:09.479Z,100343.78
2023-05-24T21:22:39.404Z,100355.34
2023-05-24T21:25:09.093Z,100343.44
2023-05-24T21:27:37.502Z,100351.41
2023-05-24T21:30:06.419Z,100359.28
2023-05-24T21:32:34.695Z,100357.25
2023-05-24T21:35:03.031Z,100343.78
2023-05-24T21:37:31.390Z,100338.72
2023-05-24T21:40:01.042Z,100344.97
2023-05-24T21:42:29.369Z,100341.50
2023-05-24T21:44:57.826Z,100347.09
2023-05-24T21:47:26.264Z,100343.03
2023-05-24T21:49:55.185Z,100347.75
2023-05-24T21:52:24.721Z,100337.09
2023-05-24T21:54:52.989Z,100340.34
2023-05-24T21:57:24.883Z,100328.91
2023-05-24T21:59:54.439Z,100337.47
2023-05-24T22:02:22.814Z,100340.16
2023-05-24T22:04:51.291Z,100345.22
2023-05-24T22:07:19.689Z,100340.69
2023-05-24T22:09:48.049Z,100336.41
2023-05-24T22:12:16.286Z,100332.00
2023-05-24T22:14:46.288Z,100327.81
2023-05-24T22:17:15.018Z,100325.19
2023-05-24T22:19:44.130Z,100320.91
2023-05-24T22:22:12.603Z,100324.28
2023-05-24T22:24:40.960Z,100320.19
2023-05-24T22:27:13.995Z,100326.22
2023-05-24T22:29:42.372Z,100319.13
2023-05-24T22:32:12.249Z,100319.47
2023-05-24T22:34:40.824Z,100326.78
2023-05-24T22:37:09.259Z,100329.31
2023-05-24T22:39:37.652Z,100330.63
2023-05-24T22:42:06.454Z,100329.19
2023-05-24T22:44:34.962Z,100326.28
2023-05-24T22:47:03.502Z,100326.44
2023-05-24T22:49:34.297Z,100321.56
2023-05-24T22:52:02.736Z,100322.88
2023-05-24T22:54:31.021Z,100325.41
2023-05-24T22:56:59.314Z,100322.03
2023-05-24T22:59:27.773Z,100312.63
2023-05-24T23:01:56.289Z,100310.28
2023-05-24T23:04:27.727Z,100309.09
2023-05-24T23:06:57.882Z,100300.06
2023-05-24T23:09:34.207Z,100296.94
2023-05-24T23:12:02.953Z,100307.13
2023-05-24T23:14:31.584Z,100300.03
2023-05-24T23:17:02.665Z,100294.50
2023-05-24T23:19:31.329Z,100307.13
2023-05-24T23:22:03.510Z,100299.50
2023-05-24T23:24:32.045Z,100292.91
2023-05-24T23:27:00.941Z,100287.22
2023-05-24T23:29:29.241Z,100285.06
2023-05-24T23:31:57.556Z,100289.50
2023-05-24T23:34:25.933Z,100288.53
2023-05-24T23:36:54.541Z,100291.09
2023-05-24T23:39:24.254Z,100293.59
2023-05-24T23:41:52.497Z,100291.47
2023-05-24T23:44:23.617Z,100298.91
2023-05-24T23:46:52.087Z,100299.81
2023-05-24T23:49:21.123Z,100301.91
2023-05-24T23:51:49.406Z,100299.53
2023-05-24T23:54:19.172Z,100289.88
2023-05-24T23:56:49.173Z,100298.22
2023-05-24T23:59:17.718Z,100289.59
